createdAt,value
2019-05-25T00:00:36.750Z,99.90
2019-05-25T00:03:07.442Z,99.90
2019-05-25T00:05:38.066Z,99.90
2019-05-25T00:08:08.675Z,99.90
2019-05-25T00:10:39.118Z,99.90
2019-05-25T00:13:11.336Z,99.90
2019-05-25T00:15:41.888Z,99.90
2019-05-25T00:18:12.461Z,99.90
2019-05-25T00:20:43.333Z,99.90
2019-05-25T00:23:13.963Z,99.90
2019-05-25T00:25:44.372Z,99.90
2019-05-25T00:28:14.885Z,99.90
2019-05-25T00:30:45.549Z,99.90
2019-05-25T00:33:16.166Z,99.90
2019-05-25T00:35:48.132Z,99.90
2019-05-25T00:38:18.736Z,99.90
2019-05-25T00:40:50.914Z,99.90
2019-05-25T00:43:22.018Z,99.90
2019-05-25T00:45:52.791Z,99.90
2019-05-25T00:48:23.424Z,99.90
2019-05-25T00:50:53.874Z,99.90
2019-05-25T00:53:24.618Z,99.90
2019-05-25T00:55:55.302Z,99.90
2019-05-25T00:58:25.930Z,99.90
2019-05-25T01:00:56.745Z,99.90
2019-05-25T01:03:27.357Z,99.90
2019-05-25T01:05:57.844Z,99.90
2019-05-25T01:08:28.593Z,99.90
2019-05-25T01:10:59.260Z,99.90
2019-05-25T01:13:29.917Z,99.90
2019-05-25T01:16:00.898Z,99.90
2019-05-25T01:18:31.372Z,99.90
2019-05-25T01:21:01.926Z,99.90
2019-05-25T01:23:32.454Z,99.90
2019-05-25T01:26:02.901Z,99.90
2019-05-25T01:28:33.362Z,99.90
2019-05-25T01:31:04.265Z,99.90
2019-05-25T01:33:35.049Z,99.90
2019-05-25T01:36:05.827Z,99.90
2019-05-25T01:38:36.463Z,99.90
2019-05-25T01:41:06.903Z,99.90
2019-05-25T01:43:37.705Z,99.90
2019-05-25T01:46:08.232Z,99.90
2019-05-25T01:48:39.359Z,99.90
2019-05-25T01:51:09.963Z,99.90
2019-05-25T01:53:40.738Z,99.90
2019-05-25T01:56:11.393Z,99.90
2019-05-25T01:58:42.085Z,99.90
2019-05-25T02:01:12.629Z,99.90
2019-05-25T02:03:43.323Z,99.90
2019-05-25T02:06:13.977Z,99.90
2019-05-25T02:08:44.484Z,99.90
2019-05-25T02:11:17.871Z,99.90
2019-05-25T02:13:48.401Z,99.90
2019-05-25T02:16:19.582Z,99.90
2019-05-25T02:18:50.326Z,99.90
2019-05-25T02:21:21.413Z,99.90
2019-05-25T02:23:52.000Z,99.90
2019-05-25T02:26:22.669Z,99.90
2019-05-25T02:28:54.274Z,99.90
2019-05-25T02:31:25.077Z,99.90
2019-05-25T02:33:55.821Z,99.90
2019-05-25T02:36:26.331Z,99.90
2019-05-25T02:38:57.280Z,99.90
2019-05-25T02:41:28.190Z,99.90
2019-05-25T02:43:58.702Z,99.90
2019-05-25T02:46:29.291Z,99.90
2019-05-25T02:48:59.979Z,99.90
2019-05-25T02:51:30.863Z,99.90
2019-05-25T02:54:01.694Z,99.90
2019-05-25T02:56:33.090Z,99.90
2019-05-25T02:59:03.752Z,99.90
2019-05-25T03:01:34.236Z,99.90
2019-05-25T03:04:06.358Z,99.90
2019-05-25T03:06:37.672Z,99.90
2019-05-25T03:09:08.639Z,99.90
2019-05-25T03:11:39.914Z,99.90
2019-05-25T03:14:10.461Z,99.90
2019-05-25T03:16:40.970Z,99.90
2019-05-25T03:19:11.472Z,99.90
2019-05-25T03:21:42.217Z,99.90
2019-05-25T03:24:12.977Z,99.90
2019-05-25T03:26:44.128Z,99.90
2019-05-25T03:29:14.686Z,99.90
2019-05-25T03:31:45.331Z,99.90
2019-05-25T03:34:15.964Z,99.90
2019-05-25T03:36:46.446Z,99.90
2019-05-25T03:39:16.969Z,99.90
2019-05-25T03:41:47.787Z,99.90
2019-05-25T03:44:18.290Z,99.90
2019-05-25T03:46:48.859Z,99.90
2019-05-25T03:49:19.493Z,99.90
2019-05-25T03:51:50.147Z,99.90
2019-05-25T03:54:20.623Z,99.90
2019-05-25T03:56:51.664Z,99.90
2019-05-25T03:59:22.366Z,99.90
2019-05-25T04:01:52.824Z,99.90
2019-05-25T04:04:23.672Z,99.90
2019-05-25T04:06:54.354Z,99.90
2019-05-25T04:09:25.442Z,99.90
2019-05-25T04:11:56.950Z,99.90
2019-05-25T04:14:27.465Z,99.90
2019-05-25T04:16:57.993Z,99.90
2019-05-25T04:19:28.827Z,99.90
2019-05-25T04:21:59.766Z,99.90
2019-05-25T04:24:30.311Z,99.90
2019-05-25T04:27:01.188Z,99.90
2019-05-25T04:29:31.893Z,99.90
2019-05-25T04:32:02.815Z,99.90
2019-05-25T04:34:33.597Z,99.90
2019-05-25T04:37:04.073Z,99.90
2019-05-25T04:39:34.682Z,99.90
2019-05-25T04:42:06.005Z,99.90
2019-05-25T04:44:36.657Z,99.90
2019-05-25T04:47:07.199Z,99.90
2019-05-25T04:49:37.856Z,99.90
2019-05-25T04:52:08.290Z,99.90
2019-05-25T04:54:40.568Z,99.90
2019-05-25T04:57:11.272Z,99.90
2019-05-25T04:59:41.832Z,99.90
2019-05-25T05:02:12.726Z,99.90
2019-05-25T05:04:43.339Z,99.90
2019-05-25T05:07:14.884Z,99.90
2019-05-25T05:09:45.543Z,99.90
2019-05-25T05:12:16.060Z,99.90
2019-05-25T05:14:46.604Z,99.90
2019-05-25T05:17:17.382Z,99.90
2019-05-25T05:19:47.934Z,99.90
2019-05-25T05:22:18.847Z,99.90
2019-05-25T05:24:49.484Z,99.90
2019-05-25T05:27:20.257Z,99.90
2019-05-25T05:29:51.240Z,99.90
2019-05-25T05:32:27.520Z,99.90
2019-05-25T05:34:54.226Z,99.90
2019-05-25T05:37:27.133Z,99.90
2019-05-25T05:39:59.331Z,99.90
2019-05-25T05:42:31.503Z,99.90
2019-05-25T05:45:03.650Z,99.90
2019-05-25T05:47:36.268Z,99.90
2019-05-25T05:50:08.066Z,99.90
2019-05-25T05:52:41.527Z,99.90
2019-05-25T05:55:12.970Z,99.90
2019-05-25T05:57:43.686Z,99.90
2019-05-25T06:00:14.531Z,99.90
2019-05-25T06:02:45.108Z,99.90
2019-05-25T06:05:15.573Z,99.90
2019-05-25T06:07:46.252Z,99.90
2019-05-25T06:10:17.816Z,99.90
2019-05-25T06:12:48.445Z,99.90
2019-05-25T06:15:18.969Z,99.90
2019-05-25T06:17:49.819Z,99.90
2019-05-25T06:20:21.800Z,99.90
2019-05-25T06:22:52.519Z,99.90
2019-05-25T06:25:23.143Z,99.90
2019-05-25T06:27:53.889Z,99.90
2019-05-25T06:30:24.402Z,99.90
2019-05-25T06:32:55.140Z,99.90
2019-05-25T06:35:25.822Z,99.90
2019-05-25T06:37:56.326Z,99.90
2019-05-25T06:40:27.013Z,99.90
2019-05-25T06:42:57.518Z,99.90
2019-05-25T06:45:28.068Z,99.90
2019-05-25T06:47:58.486Z,99.90
2019-05-25T06:50:29.118Z,99.90
2019-05-25T06:52:59.454Z,99.90
2019-05-25T06:55:30.081Z,99.90
2019-05-25T06:58:00.617Z,99.90
2019-05-25T07:00:31.644Z,99.90
2019-05-25T07:03:02.056Z,99.90
2019-05-25T07:05:32.905Z,99.90
2019-05-25T07:08:05.007Z,99.90
2019-05-25T07:11:02.214Z,99.90
2019-05-25T07:13:32.390Z,99.90
2019-05-25T07:16:03.129Z,99.90
2019-05-25T07:18:35.618Z,99.90
2019-05-25T07:21:06.569Z,99.90
2019-05-25T07:23:37.404Z,99.90
2019-05-25T07:26:08.194Z,99.90
2019-05-25T07:28:38.919Z,99.90
2019-05-25T07:31:09.806Z,99.90
2019-05-25T07:33:44.644Z,99.90
2019-05-25T07:36:15.510Z,99.90
2019-05-25T07:38:46.132Z,99.90
2019-05-25T07:41:26.183Z,99.90
2019-05-25T07:43:59.266Z,99.90
2019-05-25T07:46:29.986Z,99.90
2019-05-25T07:49:00.486Z,99.90
2019-05-25T07:51:31.128Z,99.90
2019-05-25T07:54:01.675Z,99.90
2019-05-25T07:56:32.115Z,99.90
2019-05-25T07:59:02.918Z,99.90
2019-05-25T08:01:33.864Z,99.90
2019-05-25T08:04:05.757Z,99.90
2019-05-25T08:06:36.249Z,99.90
2019-05-25T08:09:09.042Z,99.90
2019-05-25T08:12:15.376Z,99.90
2019-05-25T08:14:46.199Z,99.90
2019-05-25T08:17:17.726Z,99.90
2019-05-25T08:19:48.388Z,99.90
2019-05-25T08:22:18.975Z,99.90
2019-05-25T08:24:49.521Z,99.90
2019-05-25T08:27:20.018Z,99.90
2019-05-25T08:29:51.030Z,99.90
2019-05-25T08:32:21.675Z,99.90
2019-05-25T08:34:52.192Z,99.90
2019-05-25T08:37:23.050Z,99.90
2019-05-25T08:39:54.122Z,99.90
2019-05-25T08:42:24.768Z,99.90
2019-05-25T08:44:55.224Z,99.90
2019-05-25T08:47:25.912Z,99.90
2019-05-25T08:49:57.522Z,99.90
2019-05-25T08:52:28.286Z,99.90
2019-05-25T08:54:59.067Z,99.90
2019-05-25T08:57:29.746Z,99.90
2019-05-25T09:00:00.309Z,99.90
2019-05-25T09:02:30.907Z,99.90
2019-05-25T09:05:01.845Z,99.90
2019-05-25T09:07:32.416Z,99.90
2019-05-25T09:10:03.437Z,99.90
2019-05-25T09:12:34.037Z,99.90
2019-05-25T09:15:05.987Z,99.90
2019-05-25T09:17:43.885Z,99.90
2019-05-25T09:20:27.477Z,99.90
2019-05-25T09:22:58.123Z,99.90
2019-05-25T09:25:32.405Z,99.90
2019-05-25T09:28:03.656Z,99.90
2019-05-25T09:30:34.170Z,99.90
2019-05-25T09:33:09.690Z,99.90
2019-05-25T09:35:40.595Z,99.90
2019-05-25T09:38:12.782Z,99.90
2019-05-25T09:40:45.344Z,99.90
2019-05-25T09:43:17.820Z,99.90
2019-05-25T09:45:48.858Z,99.90
2019-05-25T09:48:28.352Z,99.90
2019-05-25T09:51:02.629Z,99.90
2019-05-25T09:53:33.424Z,99.90
2019-05-25T09:56:04.061Z,99.90
2019-05-25T09:58:34.677Z,99.90
2019-05-25T10:01:09.706Z,99.90
2019-05-25T10:03:41.208Z,99.90
2019-05-25T10:06:13.379Z,99.90
2019-05-25T10:08:44.767Z,99.90
2019-05-25T10:11:15.407Z,99.90
2019-05-25T10:14:02.430Z,99.90
2019-05-25T10:16:30.707Z,99.90
2019-05-25T10:19:01.780Z,99.90
2019-05-25T10:21:33.440Z,99.90
2019-05-25T10:24:07.084Z,99.90
2019-05-25T10:26:42.339Z,99.90
2019-05-25T10:29:13.329Z,99.90
2019-05-25T10:31:43.905Z,99.90
2019-05-25T10:34:17.923Z,99.90
2019-05-25T10:36:48.571Z,99.90
2019-05-25T10:39:19.050Z,99.90
2019-05-25T10:41:50.243Z,99.90
2019-05-25T10:44:24.935Z,99.90
2019-05-25T10:46:59.495Z,99.90
2019-05-25T10:49:30.161Z,99.90
2019-05-25T10:52:00.600Z,99.90
2019-05-25T10:54:37.230Z,99.90
2019-05-25T10:57:17.164Z,99.90
2019-05-25T10:59:57.249Z,99.90
2019-05-25T11:02:38.299Z,99.90
2019-05-25T11:05:09.482Z,99.90
2019-05-25T11:07:40.272Z,99.90
2019-05-25T11:10:26.371Z,99.90
2019-05-25T11:13:05.161Z,99.90
2019-05-25T11:15:35.813Z,99.90
2019-05-25T11:18:06.461Z,99.90
2019-05-25T11:20:37.094Z,99.90
2019-05-25T11:23:07.867Z,99.90
2019-05-25T11:25:38.419Z,99.90
2019-05-25T11:28:08.975Z,99.90
2019-05-25T11:30:39.366Z,99.90
2019-05-25T11:33:10.011Z,99.90
2019-05-25T11:35:40.554Z,99.90
2019-05-25T11:38:11.178Z,99.90
2019-05-25T11:40:41.595Z,99.90
2019-05-25T11:43:12.054Z,99.90
2019-05-25T11:45:45.383Z,99.90
2019-05-25T11:48:14.591Z,99.90
2019-05-25T11:50:45.324Z,99.90
2019-05-25T11:53:16.328Z,99.90
2019-05-25T11:55:46.844Z,99.90
2019-05-25T11:58:17.480Z,99.90
2019-05-25T12:00:51.549Z,99.90
2019-05-25T12:03:20.615Z,99.90
2019-05-25T12:05:51.002Z,99.90
2019-05-25T12:08:21.595Z,99.90
2019-05-25T12:10:53.434Z,99.90
2019-05-25T12:13:24.371Z,99.90
2019-05-25T12:15:55.379Z,99.90
2019-05-25T12:18:26.062Z,99.90
2019-05-25T12:20:57.131Z,99.90
2019-05-25T12:23:28.926Z,99.90
2019-05-25T12:26:01.622Z,99.90
2019-05-25T12:28:32.126Z,99.90
2019-05-25T12:31:07.256Z,99.90
2019-05-25T12:33:38.197Z,99.90
2019-05-25T12:36:09.702Z,99.90
2019-05-25T12:38:40.165Z,99.90
2019-05-25T12:41:10.767Z,99.90
2019-05-25T12:43:41.520Z,99.90
2019-05-25T12:46:12.255Z,99.90
2019-05-25T12:48:42.810Z,99.90
2019-05-25T12:51:13.427Z,99.90
2019-05-25T12:53:43.802Z,99.90
2019-05-25T12:56:14.218Z,99.90
2019-05-25T12:58:44.895Z,99.90
2019-05-25T13:01:15.351Z,99.90
2019-05-25T13:03:45.841Z,99.90
2019-05-25T13:06:18.328Z,99.90
2019-05-25T13:08:48.488Z,99.90
2019-05-25T13:11:19.640Z,99.90
2019-05-25T13:13:50.148Z,99.90
2019-05-25T13:16:20.846Z,99.90
2019-05-25T13:18:51.350Z,99.90
2019-05-25T13:21:21.757Z,99.90
2019-05-25T13:23:52.415Z,99.90
2019-05-25T13:26:26.653Z,99.90
2019-05-25T13:28:57.840Z,99.90
2019-05-25T13:31:28.395Z,99.90
2019-05-25T13:33:58.860Z,99.90
2019-05-25T13:36:32.225Z,99.90
2019-05-25T13:39:02.731Z,99.90
2019-05-25T13:41:33.354Z,99.90
2019-05-25T13:44:03.903Z,99.90
2019-05-25T13:46:34.532Z,99.90
2019-05-25T13:49:05.049Z,99.90
2019-05-25T13:51:36.034Z,99.90
2019-05-25T13:54:06.709Z,99.90
2019-05-25T13:56:37.907Z,99.90
2019-05-25T13:59:08.578Z,99.90
2019-05-25T14:01:39.006Z,99.90
2019-05-25T14:04:10.039Z,99.90
2019-05-25T14:06:40.493Z,99.90
2019-05-25T14:09:10.796Z,99.90
2019-05-25T14:11:41.368Z,99.90
2019-05-25T14:14:11.770Z,99.90
2019-05-25T14:16:42.636Z,99.90
2019-05-25T14:19:13.611Z,99.90
2019-05-25T14:21:44.427Z,99.90
2019-05-25T14:24:14.875Z,99.90
2019-05-25T14:26:46.148Z,99.90
2019-05-25T14:29:17.153Z,99.90
2019-05-25T14:31:49.077Z,99.90
2019-05-25T14:34:19.726Z,99.90
2019-05-25T14:36:51.542Z,99.90
2019-05-25T14:39:22.684Z,99.90
2019-05-25T14:41:53.103Z,99.90
2019-05-25T14:44:23.884Z,99.90
2019-05-25T14:46:54.793Z,99.90
2019-05-25T14:49:25.214Z,99.90
2019-05-25T14:52:01.420Z,99.90
2019-05-25T14:54:32.408Z,99.90
2019-05-25T14:57:03.988Z,99.90
2019-05-25T14:59:34.585Z,99.90
2019-05-25T15:02:05.469Z,99.90
2019-05-25T15:04:36.373Z,99.90
2019-05-25T15:07:31.796Z,99.90
2019-05-25T15:10:02.832Z,99.90
2019-05-25T15:12:33.248Z,99.90
2019-05-25T15:15:04.463Z,99.90
2019-05-25T15:17:37.293Z,99.90
2019-05-25T15:20:08.470Z,99.90
2019-05-25T15:22:38.910Z,99.90
2019-05-25T15:25:09.768Z,99.90
2019-05-25T15:27:40.308Z,99.90
2019-05-25T15:30:10.977Z,99.90
2019-05-25T15:32:44.176Z,99.90
2019-05-25T15:35:14.588Z,99.90
2019-05-25T15:37:45.151Z,99.90
2019-05-25T15:40:29.411Z,99.90
2019-05-25T15:43:00.075Z,99.90
2019-05-25T15:45:30.421Z,99.90
2019-05-25T15:48:01.463Z,99.90
2019-05-25T15:50:32.506Z,99.90
2019-05-25T15:53:02.896Z,99.90
2019-05-25T15:55:33.247Z,99.90
2019-05-25T15:58:03.549Z,99.90
2019-05-25T16:00:52.589Z,99.90
2019-05-25T16:03:23.138Z,99.90
2019-05-25T16:05:53.664Z,99.90
2019-05-25T16:08:24.599Z,99.90
2019-05-25T16:10:54.971Z,99.90
2019-05-25T16:13:25.097Z,99.90
2019-05-25T16:15:56.250Z,99.90
2019-05-25T16:18:35.804Z,99.90
2019-05-25T16:21:01.931Z,99.90
2019-05-25T16:23:32.677Z,99.90
2019-05-25T16:26:04.450Z,99.90
2019-05-25T16:28:34.826Z,99.90
2019-05-25T16:31:06.159Z,99.90
2019-05-25T16:33:36.697Z,99.90
2019-05-25T16:36:07.523Z,99.90
2019-05-25T16:38:38.238Z,99.90
2019-05-25T16:41:09.027Z,99.90
2019-05-25T16:43:39.619Z,99.80
2019-05-25T16:46:10.129Z,99.50
2019-05-25T16:48:40.683Z,99.20
2019-05-25T16:51:11.039Z,99.20
2019-05-25T16:53:45.133Z,99.10
2019-05-25T16:56:15.708Z,98.70
2019-05-25T16:58:49.546Z,99.40
2019-05-25T17:01:20.143Z,99.90
2019-05-25T17:03:50.848Z,99.80
2019-05-25T17:06:21.590Z,99.50
2019-05-25T17:08:56.080Z,99.20
2019-05-25T17:11:24.890Z,99.30
2019-05-25T17:13:55.051Z,99.60
2019-05-25T17:16:25.606Z,99.60
2019-05-25T17:18:56.178Z,99.90
2019-05-25T17:21:27.003Z,99.40
2019-05-25T17:23:57.956Z,99.60
2019-05-25T17:26:29.052Z,99.80
2019-05-25T17:29:00.160Z,99.90
2019-05-25T17:31:30.708Z,99.90
2019-05-25T17:34:00.948Z,99.90
2019-05-25T17:36:32.643Z,99.90
2019-05-25T17:39:03.297Z,99.90
2019-05-25T17:41:33.772Z,99.90
2019-05-25T17:44:09.066Z,99.90
2019-05-25T17:46:39.595Z,99.90
2019-05-25T17:49:10.244Z,99.90
2019-05-25T17:51:40.825Z,99.90
2019-05-25T17:54:11.295Z,99.90
2019-05-25T17:56:42.217Z,99.90
2019-05-25T17:59:12.751Z,99.00
2019-05-25T18:01:44.221Z,99.00
2019-05-25T18:04:14.928Z,97.10
2019-05-25T18:06:45.644Z,96.80
2019-05-25T18:09:16.197Z,95.90
2019-05-25T18:11:46.806Z,95.10
2019-05-25T18:14:17.878Z,94.40
2019-05-25T18:16:48.444Z,93.70
2019-05-25T18:19:19.099Z,94.10
2019-05-25T18:21:49.892Z,94.60
2019-05-25T18:24:21.484Z,94.60
2019-05-25T18:26:52.241Z,95.20
2019-05-25T18:29:23.858Z,95.50
2019-05-25T18:31:54.923Z,95.70
2019-05-25T18:34:25.701Z,96.00
2019-05-25T18:36:56.215Z,97.00
2019-05-25T18:39:26.827Z,97.20
2019-05-25T18:41:57.491Z,97.50
2019-05-25T18:44:28.150Z,97.90
2019-05-25T18:46:58.773Z,97.30
2019-05-25T18:49:29.525Z,97.00
2019-05-25T18:52:00.522Z,96.80
2019-05-25T18:54:31.445Z,96.90
2019-05-25T18:57:06.670Z,97.10
2019-05-25T18:59:34.941Z,97.00
2019-05-25T19:02:05.864Z,97.20
2019-05-25T19:04:44.666Z,97.10
2019-05-25T19:07:09.134Z,97.10
2019-05-25T19:09:39.648Z,97.30
2019-05-25T19:12:11.841Z,97.50
2019-05-25T19:14:42.402Z,97.50
2019-05-25T19:17:13.001Z,97.40
2019-05-25T19:19:43.572Z,97.60
2019-05-25T19:22:14.257Z,97.50
2019-05-25T19:24:45.119Z,97.70
2019-05-25T19:27:15.649Z,97.80
2019-05-25T19:29:46.366Z,97.90
2019-05-25T19:32:16.981Z,98.00
2019-05-25T19:34:58.898Z,98.10
2019-05-25T19:37:20.878Z,98.20
2019-05-25T19:39:51.444Z,98.40
2019-05-25T19:42:22.555Z,98.50
2019-05-25T19:44:53.381Z,98.60
2019-05-25T19:47:26.141Z,99.00
2019-05-25T19:49:57.495Z,98.90
2019-05-25T19:52:28.399Z,99.00
2019-05-25T19:54:59.534Z,99.10
2019-05-25T19:57:30.381Z,99.30
2019-05-25T20:00:00.976Z,99.50
2019-05-25T20:02:32.085Z,99.70
2019-05-25T20:05:15.862Z,99.80
2019-05-25T20:07:35.559Z,99.90
2019-05-25T20:10:06.894Z,99.90
2019-05-25T20:12:37.362Z,99.90
2019-05-25T20:15:09.234Z,99.90
2019-05-25T20:17:39.929Z,99.90
2019-05-25T20:20:11.097Z,99.90
2019-05-25T20:22:42.220Z,99.90
2019-05-25T20:25:13.149Z,99.90
2019-05-25T20:27:43.914Z,99.90
2019-05-25T20:30:14.916Z,99.90
2019-05-25T20:32:45.352Z,99.90
2019-05-25T20:35:31.808Z,99.90
2019-05-25T20:37:51.053Z,99.90
2019-05-25T20:40:21.620Z,99.90
2019-05-25T20:42:52.150Z,99.90
2019-05-25T20:45:23.355Z,99.90
2019-05-25T20:47:54.269Z,99.90
2019-05-25T20:50:27.199Z,99.90
2019-05-25T20:52:58.789Z,99.90
2019-05-25T20:55:29.733Z,99.90
2019-05-25T20:58:02.785Z,99.90
2019-05-25T21:00:35.808Z,99.90
2019-05-25T21:03:06.999Z,99.90
2019-05-25T21:05:49.985Z,99.90
2019-05-25T21:08:10.971Z,99.90
2019-05-25T21:10:42.042Z,99.90
2019-05-25T21:13:13.722Z,99.90
2019-05-25T21:15:45.492Z,99.90
2019-05-25T21:18:16.361Z,99.90
2019-05-25T21:20:48.301Z,99.90
2019-05-25T21:23:19.054Z,99.90
2019-05-25T21:25:49.896Z,99.90
2019-05-25T21:28:21.054Z,99.90
2019-05-25T21:30:52.225Z,99.90
2019-05-25T21:33:22.816Z,99.90
2019-05-25T21:36:07.539Z,99.90
2019-05-25T21:38:26.376Z,99.90
2019-05-25T21:40:57.446Z,99.90
2019-05-25T21:43:28.018Z,99.90
2019-05-25T21:46:00.635Z,99.90
2019-05-25T21:48:31.346Z,99.90
2019-05-25T21:51:02.447Z,99.90
2019-05-25T21:53:33.184Z,99.90
2019-05-25T21:56:03.761Z,99.90
2019-05-25T21:58:34.318Z,99.90
2019-05-25T22:01:05.963Z,99.90
2019-05-25T22:03:36.589Z,99.90
2019-05-25T22:06:22.927Z,99.90
2019-05-25T22:08:39.584Z,99.90
2019-05-25T22:11:10.357Z,99.90
2019-05-25T22:13:40.774Z,99.90
2019-05-25T22:16:12.361Z,99.90
2019-05-25T22:18:43.163Z,99.90
2019-05-25T22:21:13.601Z,99.90
2019-05-25T22:23:44.222Z,99.90
2019-05-25T22:26:14.901Z,99.90
2019-05-25T22:28:46.170Z,99.90
2019-05-25T22:31:16.745Z,99.90
2019-05-25T22:33:47.659Z,99.90
2019-05-25T22:36:18.362Z,99.90
2019-05-25T22:38:49.015Z,99.90
2019-05-25T22:41:20.112Z,99.90
2019-05-25T22:43:51.050Z,99.90
2019-05-25T22:46:21.699Z,99.90
2019-05-25T22:48:52.430Z,99.90
2019-05-25T22:51:22.960Z,99.90
2019-05-25T22:53:53.509Z,99.90
2019-05-25T22:56:25.311Z,99.90
2019-05-25T22:58:56.070Z,99.90
2019-05-25T23:01:26.944Z,99.90
2019-05-25T23:03:57.426Z,99.90
2019-05-25T23:06:28.049Z,99.90
2019-05-25T23:08:58.616Z,99.90
2019-05-25T23:11:29.141Z,99.90
2019-05-25T23:13:59.663Z,99.90
2019-05-25T23:16:31.271Z,99.90
2019-05-25T23:19:01.967Z,99.90
2019-05-25T23:21:32.462Z,99.90
2019-05-25T23:24:03.158Z,99.90
2019-05-25T23:26:33.786Z,99.90
2019-05-25T23:29:04.321Z,99.90
2019-05-25T23:31:34.927Z,99.90
2019-05-25T23:34:05.750Z,99.90
2019-05-25T23:36:37.853Z,99.90
2019-05-25T23:39:16.756Z,99.90
2019-05-25T23:41:47.491Z,99.90
2019-05-25T23:44:17.999Z,99.90
2019-05-25T23:46:48.721Z,99.90
2019-05-25T23:49:19.248Z,99.90
2019-05-25T23:51:49.733Z,99.90
2019-05-25T23:54:20.244Z,99.90
2019-05-25T23:56:51.360Z,99.90
2019-05-25T23:59:22.084Z,99.90
